Hortensia, Argentina
Current Conditions -  °F | °C
As of 5:00 AM on Monday 26 Jan 2015 (Local Time) from SAEZ Reporting Station
Light Rain Light Rain  
Wind Chill: 73°   Ceiling: 7000
Heat Index: 73°   Visibility: 6mi
Dew Point: 72°   Wind: 3mph
Humidity: 94%   Direction: 180°S
Pressure: 29.8"   Gusts: NA
Location:  35.93°S, 61.28°W
Report Text: SAEZ 260800Z 18003KT 140V220 9999 -RA FEW020 BKN070 23/22 Q1009
Loading
Personal Weather Stations






























Interactive Weather Map New forecast layout! Learn more

10-Day Weather Forecast

Advertisements
Track Severe Weather on mobile